createdAt,value
2018-07-13T00:00:20.543Z,1014.97
2018-07-13T00:01:20.545Z,1014.98
2018-07-13T00:02:20.741Z,1015.03
2018-07-13T00:03:20.550Z,1015.02
2018-07-13T00:04:20.745Z,1015.01
2018-07-13T00:05:20.545Z,1015.01
2018-07-13T00:06:20.550Z,1015.04
2018-07-13T00:07:20.751Z,1015.03
2018-07-13T00:08:20.552Z,1015.05
2018-07-13T00:09:20.559Z,1015.02
2018-07-13T00:10:20.761Z,1015.02
2018-07-13T00:11:20.774Z,1015.04
2018-07-13T00:12:20.563Z,1015.03
2018-07-13T00:13:20.579Z,1015.02
2018-07-13T00:14:20.581Z,1015.06
2018-07-13T00:15:20.770Z,1015.00
2018-07-13T00:16:20.587Z,1015.01
2018-07-13T00:17:20.574Z,1015.00
2018-07-13T00:18:20.592Z,1014.98
2018-07-13T00:19:20.581Z,1015.01
2018-07-13T00:20:20.592Z,1014.96
2018-07-13T00:21:20.597Z,1014.97
2018-07-13T00:22:20.605Z,1014.97
2018-07-13T00:23:20.590Z,1015.01
2018-07-13T00:24:20.805Z,1015.00
2018-07-13T00:25:20.601Z,1015.00
2018-07-13T00:26:20.598Z,1015.04
2018-07-13T00:27:20.815Z,1015.05
2018-07-13T00:28:20.628Z,1015.02
2018-07-13T00:29:20.605Z,1015.07
2018-07-13T00:30:20.608Z,1015.04
2018-07-13T00:31:20.607Z,1015.09
2018-07-13T00:32:20.614Z,1015.08
2018-07-13T00:33:20.629Z,1015.07
2018-07-13T00:34:20.617Z,1015.09
2018-07-13T00:35:20.620Z,1015.05
2018-07-13T00:36:20.834Z,1015.10
2018-07-13T00:37:20.623Z,1015.07
2018-07-13T00:38:20.629Z,1015.07
2018-07-13T00:39:20.626Z,1015.06
2018-07-13T00:40:20.832Z,1015.11
2018-07-13T00:41:20.646Z,1015.12
2018-07-13T00:42:20.632Z,1015.08
2018-07-13T00:43:20.636Z,1015.13
2018-07-13T00:44:20.639Z,1015.09
2018-07-13T00:45:20.652Z,1015.09
2018-07-13T00:46:20.642Z,1015.09
2018-07-13T00:47:20.664Z,1015.11
2018-07-13T00:48:20.851Z,1015.13
2018-07-13T00:49:20.662Z,1015.12
2018-07-13T00:50:20.656Z,1015.14
2018-07-13T00:51:20.654Z,1015.14
2018-07-13T00:52:20.871Z,1015.14
2018-07-13T00:53:20.876Z,1015.17
2018-07-13T00:54:20.661Z,1015.16
2018-07-13T00:55:20.693Z,1015.18
2018-07-13T00:56:20.666Z,1015.16
2018-07-13T00:57:20.881Z,1015.17
2018-07-13T00:58:20.673Z,1015.11
2018-07-13T00:59:20.874Z,1015.12
2018-07-13T01:00:20.876Z,1015.12
2018-07-13T01:01:20.688Z,1015.15
2018-07-13T01:02:20.693Z,1015.15
2018-07-13T01:03:20.884Z,1015.16
2018-07-13T01:04:20.684Z,1015.13
2018-07-13T01:05:20.688Z,1015.14
2018-07-13T01:06:20.690Z,1015.15
2018-07-13T01:07:20.690Z,1015.19
2018-07-13T01:08:20.893Z,1015.20
2018-07-13T01:09:20.707Z,1015.19
2018-07-13T01:10:20.899Z,1015.17
2018-07-13T01:11:20.697Z,1015.18
2018-07-13T01:12:20.702Z,1015.20
2018-07-13T01:13:20.704Z,1015.19
2018-07-13T01:14:20.706Z,1015.17
2018-07-13T01:15:20.715Z,1015.14
2018-07-13T01:16:20.922Z,1015.15
2018-07-13T01:17:20.727Z,1015.16
2018-07-13T01:18:20.713Z,1015.11
2018-07-13T01:19:20.712Z,1015.14
2018-07-13T01:20:20.920Z,1015.15
2018-07-13T01:21:20.721Z,1015.18
2018-07-13T01:22:20.923Z,1015.14
2018-07-13T01:23:20.723Z,1015.12
2018-07-13T01:24:20.937Z,1015.15
2018-07-13T01:25:20.727Z,1015.18
2018-07-13T01:26:20.946Z,1015.18
2018-07-13T01:27:20.734Z,1015.20
2018-07-13T01:28:20.734Z,1015.21
2018-07-13T01:29:20.941Z,1015.19
2018-07-13T01:30:20.749Z,1015.22
2018-07-13T01:31:20.944Z,1015.17
2018-07-13T01:32:20.743Z,1015.19
2018-07-13T01:33:20.950Z,1015.21
2018-07-13T01:34:20.746Z,1015.19
2018-07-13T01:35:20.801Z,1015.23
2018-07-13T01:36:20.954Z,1015.23
2018-07-13T01:37:20.751Z,1015.23
2018-07-13T01:38:20.754Z,1015.20
2018-07-13T01:39:20.768Z,1015.23
2018-07-13T01:40:20.976Z,1015.25
2018-07-13T01:41:20.779Z,1015.26
2018-07-13T01:42:20.765Z,1015.21
2018-07-13T01:43:20.777Z,1015.26
2018-07-13T01:44:20.769Z,1015.24
2018-07-13T01:45:20.786Z,1015.24
2018-07-13T01:46:20.774Z,1015.27
2018-07-13T01:47:20.777Z,1015.21
2018-07-13T01:48:20.787Z,1015.25
2018-07-13T01:49:20.806Z,1015.25
2018-07-13T01:50:20.782Z,1015.25
2018-07-13T01:51:20.786Z,1015.25
2018-07-13T01:52:20.799Z,1015.25
2018-07-13T01:53:20.787Z,1015.25
2018-07-13T01:54:21.007Z,1015.30
2018-07-13T01:55:20.808Z,1015.27
2018-07-13T01:56:20.793Z,1015.27
2018-07-13T01:57:20.812Z,1015.27
2018-07-13T01:58:20.810Z,1015.26
2018-07-13T01:59:20.825Z,1015.23
2018-07-13T02:00:21.007Z,1015.24
2018-07-13T02:01:20.822Z,1015.26
2018-07-13T02:02:20.825Z,1015.24
2018-07-13T02:03:20.810Z,1015.26
2018-07-13T02:04:20.826Z,1015.28
2018-07-13T02:05:20.830Z,1015.28
2018-07-13T02:06:20.844Z,1015.23
2018-07-13T02:07:21.022Z,1015.26
2018-07-13T02:08:21.037Z,1015.27
2018-07-13T02:09:20.828Z,1015.30
2018-07-13T02:10:20.834Z,1015.28
2018-07-13T02:11:20.844Z,1015.33
2018-07-13T02:12:20.840Z,1015.30
2018-07-13T02:13:20.836Z,1015.35
2018-07-13T02:14:20.845Z,1015.32
2018-07-13T02:15:20.864Z,1015.32
2018-07-13T02:16:20.854Z,1015.35
2018-07-13T02:17:20.839Z,1015.33
2018-07-13T02:18:20.845Z,1015.32
2018-07-13T02:19:21.057Z,1015.35
2018-07-13T02:20:20.849Z,1015.32
2018-07-13T02:21:20.866Z,1015.34
2018-07-13T02:22:20.855Z,1015.29
2018-07-13T02:23:20.853Z,1015.29
2018-07-13T02:24:20.872Z,1015.29
2018-07-13T02:25:20.861Z,1015.30
2018-07-13T02:26:20.863Z,1015.28
2018-07-13T02:27:20.877Z,1015.29
2018-07-13T02:28:20.868Z,1015.30
2018-07-13T02:29:20.892Z,1015.31
2018-07-13T02:30:20.885Z,1015.32
2018-07-13T02:31:20.891Z,1015.33
2018-07-13T02:32:20.903Z,1015.31
2018-07-13T02:33:21.095Z,1015.35
2018-07-13T02:34:20.903Z,1015.32
2018-07-13T02:35:20.883Z,1015.35
2018-07-13T02:36:20.908Z,1015.33
2018-07-13T02:37:20.934Z,1015.32
2018-07-13T02:38:20.895Z,1015.31
2018-07-13T02:39:20.895Z,1015.33
2018-07-13T02:40:20.912Z,1015.34
2018-07-13T02:41:20.901Z,1015.34
2018-07-13T02:42:20.904Z,1015.37
2018-07-13T02:43:20.903Z,1015.36
2018-07-13T02:44:20.908Z,1015.42
2018-07-13T02:45:21.124Z,1015.39
2018-07-13T02:46:21.116Z,1015.43
2018-07-13T02:47:21.129Z,1015.41
2018-07-13T02:48:20.919Z,1015.42
2018-07-13T02:49:20.933Z,1015.44
2018-07-13T02:50:21.126Z,1015.44
2018-07-13T02:51:21.139Z,1015.42
2018-07-13T02:52:20.930Z,1015.42
2018-07-13T02:53:21.133Z,1015.42
2018-07-13T02:54:20.935Z,1015.42
2018-07-13T02:55:20.935Z,1015.41
2018-07-13T02:56:20.938Z,1015.44
2018-07-13T02:57:21.145Z,1015.43
2018-07-13T02:58:21.159Z,1015.44
2018-07-13T02:59:20.981Z,1015.44
2018-07-13T03:00:20.949Z,1015.47
2018-07-13T03:01:21.163Z,1015.49
2018-07-13T03:02:20.953Z,1015.51
2018-07-13T03:03:20.955Z,1015.50
2018-07-13T03:04:20.959Z,1015.50
2018-07-13T03:05:20.970Z,1015.50
2018-07-13T03:06:20.964Z,1015.50
2018-07-13T03:07:20.965Z,1015.48
2018-07-13T03:08:21.183Z,1015.51
2018-07-13T03:09:20.971Z,1015.53
2018-07-13T03:10:20.971Z,1015.48
2018-07-13T03:11:20.985Z,1015.50
2018-07-13T03:12:20.974Z,1015.51
2018-07-13T03:13:20.976Z,1015.55
2018-07-13T03:14:20.984Z,1015.50
2018-07-13T03:15:20.983Z,1015.54
2018-07-13T03:16:20.984Z,1015.54
2018-07-13T03:17:20.998Z,1015.53
2018-07-13T03:18:20.997Z,1015.56
2018-07-13T03:19:21.009Z,1015.54
2018-07-13T03:20:21.191Z,1015.52
2018-07-13T03:21:21.019Z,1015.56
2018-07-13T03:22:21.016Z,1015.58
2018-07-13T03:23:20.999Z,1015.56
2018-07-13T03:24:21.009Z,1015.57
2018-07-13T03:25:21.016Z,1015.61
2018-07-13T03:26:21.210Z,1015.63
2018-07-13T03:27:21.007Z,1015.63
2018-07-13T03:28:21.006Z,1015.61
2018-07-13T03:29:21.023Z,1015.61
2018-07-13T03:30:21.011Z,1015.63
2018-07-13T03:31:21.214Z,1015.64
2018-07-13T03:32:21.026Z,1015.65
2018-07-13T03:33:21.233Z,1015.68
2018-07-13T03:34:21.020Z,1015.69
2018-07-13T03:35:21.029Z,1015.67
2018-07-13T03:36:21.022Z,1015.68
2018-07-13T03:37:21.024Z,1015.70
2018-07-13T03:38:21.239Z,1015.68
2018-07-13T03:39:21.227Z,1015.65
2018-07-13T03:40:21.041Z,1015.68
2018-07-13T03:41:21.042Z,1015.67
2018-07-13T03:42:21.055Z,1015.70
2018-07-13T03:43:21.060Z,1015.71
2018-07-13T03:44:21.035Z,1015.74
2018-07-13T03:45:21.239Z,1015.72
2018-07-13T03:46:21.254Z,1015.70
2018-07-13T03:47:21.055Z,1015.73
2018-07-13T03:48:21.121Z,1015.78
2018-07-13T03:49:21.076Z,1015.80
2018-07-13T03:50:21.060Z,1015.79
2018-07-13T03:51:21.059Z,1015.80
2018-07-13T03:52:21.077Z,1015.79
2018-07-13T03:53:21.259Z,1015.78
2018-07-13T03:54:21.055Z,1015.77
2018-07-13T03:55:21.067Z,1015.79
2018-07-13T03:56:21.058Z,1015.78
2018-07-13T03:57:21.059Z,1015.74
2018-07-13T03:58:21.277Z,1015.75
2018-07-13T03:59:21.263Z,1015.77
2018-07-13T04:00:21.082Z,1015.75
2018-07-13T04:01:21.083Z,1015.74
2018-07-13T04:02:21.068Z,1015.74
2018-07-13T04:03:21.070Z,1015.74
2018-07-13T04:04:21.271Z,1015.74
2018-07-13T04:05:21.075Z,1015.75
2018-07-13T04:06:21.087Z,1015.75
2018-07-13T04:07:21.284Z,1015.73
2018-07-13T04:08:21.079Z,1015.76
2018-07-13T04:09:21.280Z,1015.72
2018-07-13T04:10:21.099Z,1015.71
2018-07-13T04:11:21.079Z,1015.69
2018-07-13T04:12:21.083Z,1015.72
2018-07-13T04:13:21.287Z,1015.71
2018-07-13T04:14:21.099Z,1015.70
2018-07-13T04:15:21.087Z,1015.72
2018-07-13T04:16:21.090Z,1015.72
2018-07-13T04:17:21.110Z,1015.71
2018-07-13T04:18:21.094Z,1015.67
2018-07-13T04:19:21.093Z,1015.72
2018-07-13T04:20:21.095Z,1015.69
2018-07-13T04:21:21.117Z,1015.70
2018-07-13T04:22:21.097Z,1015.70
2018-07-13T04:23:21.115Z,1015.68
2018-07-13T04:24:21.102Z,1015.72
2018-07-13T04:25:21.103Z,1015.71
2018-07-13T04:26:21.103Z,1015.71
2018-07-13T04:27:21.103Z,1015.74
2018-07-13T04:28:21.106Z,1015.74
2018-07-13T04:29:21.109Z,1015.72
2018-07-13T04:30:21.120Z,1015.71
2018-07-13T04:31:21.112Z,1015.75
2018-07-13T04:32:21.114Z,1015.75
2018-07-13T04:33:21.116Z,1015.72
2018-07-13T04:34:21.178Z,1015.76
2018-07-13T04:35:21.121Z,1015.74
2018-07-13T04:36:21.322Z,1015.78
2018-07-13T04:37:21.123Z,1015.78
2018-07-13T04:38:21.125Z,1015.77
2018-07-13T04:39:21.337Z,1015.78
2018-07-13T04:40:21.137Z,1015.74
2018-07-13T04:41:21.331Z,1015.74
2018-07-13T04:42:21.140Z,1015.76
2018-07-13T04:43:21.133Z,1015.75
2018-07-13T04:44:21.134Z,1015.74
2018-07-13T04:45:21.149Z,1015.77
2018-07-13T04:46:21.142Z,1015.77
2018-07-13T04:47:21.162Z,1015.80
2018-07-13T04:48:21.144Z,1015.80
2018-07-13T04:49:21.157Z,1015.76
2018-07-13T04:50:21.234Z,1015.76
2018-07-13T04:51:21.184Z,1015.78
2018-07-13T04:52:21.349Z,1015.76
2018-07-13T04:53:21.357Z,1015.81
2018-07-13T04:54:21.365Z,1015.78
2018-07-13T04:55:21.155Z,1015.83
2018-07-13T04:56:21.179Z,1015.80
2018-07-13T04:57:21.164Z,1015.82
2018-07-13T04:58:21.162Z,1015.83
2018-07-13T04:59:21.163Z,1015.80
2018-07-13T05:00:21.364Z,1015.82
2018-07-13T05:01:21.168Z,1015.81
2018-07-13T05:02:21.169Z,1015.81
2018-07-13T05:03:21.170Z,1015.84
2018-07-13T05:04:21.170Z,1015.82
2018-07-13T05:05:21.173Z,1015.79
2018-07-13T05:06:21.265Z,1015.84
2018-07-13T05:07:21.388Z,1015.81
2018-07-13T05:08:21.177Z,1015.84
2018-07-13T05:09:21.384Z,1015.81
2018-07-13T05:10:21.181Z,1015.80
2018-07-13T05:11:21.394Z,1015.83
2018-07-13T05:12:21.184Z,1015.77
2018-07-13T05:13:21.198Z,1015.80
2018-07-13T05:14:21.199Z,1015.79
2018-07-13T05:15:21.191Z,1015.80
2018-07-13T05:16:21.395Z,1015.79
2018-07-13T05:17:21.196Z,1015.80
2018-07-13T05:18:21.210Z,1015.80
2018-07-13T05:19:21.200Z,1015.82
2018-07-13T05:20:21.204Z,1015.84
2018-07-13T05:21:21.247Z,1015.83
2018-07-13T05:22:21.210Z,1015.87
2018-07-13T05:23:21.205Z,1015.84
2018-07-13T05:24:21.206Z,1015.89
2018-07-13T05:25:21.213Z,1015.90
2018-07-13T05:26:21.412Z,1015.91
2018-07-13T05:27:21.224Z,1015.87
2018-07-13T05:28:21.210Z,1015.93
2018-07-13T05:29:21.224Z,1015.90
2018-07-13T05:30:21.433Z,1015.90
2018-07-13T05:31:21.219Z,1015.90
2018-07-13T05:32:21.218Z,1015.87
2018-07-13T05:33:21.222Z,1015.93
2018-07-13T05:34:21.223Z,1015.92
2018-07-13T05:35:21.225Z,1015.90
2018-07-13T05:36:21.438Z,1015.89
2018-07-13T05:37:21.252Z,1015.90
2018-07-13T05:38:21.269Z,1015.90
2018-07-13T05:39:21.431Z,1015.92
2018-07-13T05:40:21.244Z,1015.91
2018-07-13T05:41:21.234Z,1015.94
2018-07-13T05:42:21.251Z,1015.93
2018-07-13T05:43:21.248Z,1015.95
2018-07-13T05:44:21.440Z,1015.98
2018-07-13T05:45:21.441Z,1015.96
2018-07-13T05:46:21.459Z,1016.00
2018-07-13T05:47:21.245Z,1015.97
2018-07-13T05:48:21.272Z,1015.99
2018-07-13T05:49:21.250Z,1015.99
2018-07-13T05:50:21.261Z,1016.03
2018-07-13T05:51:21.251Z,1016.03
2018-07-13T05:52:21.255Z,1016.02
2018-07-13T05:53:21.255Z,1016.02
2018-07-13T05:54:21.471Z,1016.03
2018-07-13T05:55:21.459Z,1016.01
2018-07-13T05:56:21.264Z,1016.01
2018-07-13T05:57:21.277Z,1016.03
2018-07-13T05:58:21.265Z,1016.05
2018-07-13T05:59:21.275Z,1016.09
2018-07-13T06:00:21.288Z,1016.10
2018-07-13T06:01:21.469Z,1016.12
2018-07-13T06:02:21.485Z,1016.09
2018-07-13T06:03:21.269Z,1016.08
2018-07-13T06:04:21.272Z,1016.10
2018-07-13T06:05:21.275Z,1016.09
2018-07-13T06:06:21.291Z,1016.05
2018-07-13T06:07:21.490Z,1016.08
2018-07-13T06:08:21.281Z,1016.05
2018-07-13T06:09:21.503Z,1016.07
2018-07-13T06:10:21.300Z,1016.08
2018-07-13T06:11:21.297Z,1016.02
2018-07-13T06:12:21.301Z,1016.03
2018-07-13T06:13:21.290Z,1016.00
2018-07-13T06:14:21.295Z,1016.01
2018-07-13T06:15:21.291Z,1016.05
2018-07-13T06:16:21.513Z,1016.00
2018-07-13T06:17:21.298Z,1016.02
2018-07-13T06:18:21.311Z,1016.06
2018-07-13T06:19:21.301Z,1016.02
2018-07-13T06:20:21.367Z,1016.02
2018-07-13T06:21:21.507Z,1016.06
2018-07-13T06:22:21.310Z,1016.01
2018-07-13T06:23:21.312Z,1016.02
2018-07-13T06:24:21.606Z,1016.02
2018-07-13T06:25:21.324Z,1016.00
2018-07-13T06:26:21.326Z,1016.01
2018-07-13T06:27:21.346Z,1016.03
2018-07-13T06:28:21.323Z,1016.03
2018-07-13T06:29:21.322Z,1016.05
2018-07-13T06:30:21.392Z,1016.08
2018-07-13T06:31:21.413Z,1016.10
2018-07-13T06:32:21.337Z,1016.09
2018-07-13T06:33:21.341Z,1016.08
2018-07-13T06:34:21.333Z,1016.10
2018-07-13T06:35:21.535Z,1016.09
2018-07-13T06:36:21.548Z,1016.12
2018-07-13T06:37:21.336Z,1016.10
2018-07-13T06:38:21.543Z,1016.05
2018-07-13T06:39:21.340Z,1016.08
2018-07-13T06:40:21.354Z,1016.05
2018-07-13T06:41:21.355Z,1016.11
2018-07-13T06:42:21.363Z,1016.09
2018-07-13T06:43:21.349Z,1016.12
2018-07-13T06:44:21.361Z,1016.12
2018-07-13T06:45:21.569Z,1016.15
2018-07-13T06:46:21.571Z,1016.17
2018-07-13T06:47:21.380Z,1016.14
2018-07-13T06:48:21.358Z,1016.13
2018-07-13T06:49:21.370Z,1016.13
2018-07-13T06:50:21.383Z,1016.18
2018-07-13T06:51:21.365Z,1016.16
2018-07-13T06:52:21.382Z,1016.15
2018-07-13T06:53:21.372Z,1016.13
2018-07-13T06:54:21.385Z,1016.17
2018-07-13T06:55:21.386Z,1016.21
2018-07-13T06:56:21.389Z,1016.15
2018-07-13T06:57:21.389Z,1016.18
2018-07-13T06:58:21.380Z,1016.19
2018-07-13T06:59:21.385Z,1016.21
2018-07-13T07:00:21.384Z,1016.17
2018-07-13T07:01:21.398Z,1016.17
2018-07-13T07:02:21.392Z,1016.20
2018-07-13T07:03:21.402Z,1016.23
2018-07-13T07:04:21.400Z,1016.22
2018-07-13T07:05:21.402Z,1016.23
2018-07-13T07:06:21.400Z,1016.24
2018-07-13T07:07:21.619Z,1016.27
2018-07-13T07:08:21.418Z,1016.16
2018-07-13T07:09:21.410Z,1016.21
2018-07-13T07:10:21.411Z,1016.21
2018-07-13T07:11:21.413Z,1016.17
2018-07-13T07:12:21.438Z,1016.18
2018-07-13T07:13:21.439Z,1016.21
2018-07-13T07:14:21.420Z,1016.19
2018-07-13T07:15:21.433Z,1016.21
2018-07-13T07:16:21.451Z,1016.21
2018-07-13T07:17:21.441Z,1016.18
2018-07-13T07:18:21.431Z,1016.20
2018-07-13T07:19:21.435Z,1016.19
2018-07-13T07:20:21.452Z,1016.22
2018-07-13T07:21:21.449Z,1016.23
2018-07-13T07:22:21.453Z,1016.22
2018-07-13T07:23:21.470Z,1016.21
2018-07-13T07:24:21.487Z,1016.16
2018-07-13T07:25:21.653Z,1016.19
2018-07-13T07:26:21.453Z,1016.16
2018-07-13T07:27:21.453Z,1016.18
2018-07-13T07:28:21.665Z,1016.17
2018-07-13T07:29:21.687Z,1016.14
2018-07-13T07:30:21.665Z,1016.14
2018-07-13T07:31:21.484Z,1016.14
2018-07-13T07:32:21.696Z,1016.14
2018-07-13T07:33:21.487Z,1016.16
2018-07-13T07:34:21.677Z,1016.14
2018-07-13T07:35:21.489Z,1016.16
2018-07-13T07:36:21.491Z,1016.17
2018-07-13T07:37:21.483Z,1016.16
2018-07-13T07:38:21.528Z,1016.15
2018-07-13T07:39:21.499Z,1016.19
2018-07-13T07:40:21.705Z,1016.15
2018-07-13T07:41:21.504Z,1016.22
2018-07-13T07:42:21.496Z,1016.22
2018-07-13T07:43:21.508Z,1016.19
2018-07-13T07:44:21.503Z,1016.17
2018-07-13T07:45:21.506Z,1016.17
2018-07-13T07:46:21.508Z,1016.16
2018-07-13T07:47:21.511Z,1016.17
2018-07-13T07:48:21.527Z,1016.16
2018-07-13T07:49:21.518Z,1016.14
2018-07-13T07:50:21.734Z,1016.12
2018-07-13T07:51:21.533Z,1016.14
2018-07-13T07:52:21.561Z,1016.14
2018-07-13T07:53:21.544Z,1016.13
2018-07-13T07:54:21.532Z,1016.12
2018-07-13T07:55:21.547Z,1016.13
2018-07-13T07:56:21.551Z,1016.14
2018-07-13T07:57:21.758Z,1016.17
2018-07-13T07:58:21.555Z,1016.17
2018-07-13T07:59:21.546Z,1016.18
2018-07-13T08:00:21.552Z,1016.17
2018-07-13T08:01:21.552Z,1016.19
2018-07-13T08:02:21.560Z,1016.20
2018-07-13T08:03:21.560Z,1016.23
2018-07-13T08:04:21.570Z,1016.27
2018-07-13T08:05:21.584Z,1016.32
2018-07-13T08:06:21.594Z,1016.32
2018-07-13T08:07:21.705Z,1016.38
2018-07-13T08:08:21.593Z,1016.37
2018-07-13T08:09:21.582Z,1016.38
2018-07-13T08:10:21.791Z,1016.29
2018-07-13T08:11:21.597Z,1016.32
2018-07-13T08:12:21.794Z,1016.28
2018-07-13T08:13:21.797Z,1016.33
2018-07-13T08:14:21.809Z,1016.31
2018-07-13T08:15:21.834Z,1016.33
2018-07-13T08:16:21.605Z,1016.27
2018-07-13T08:17:21.609Z,1016.34
2018-07-13T08:18:21.611Z,1016.28
2018-07-13T08:19:21.618Z,1016.25
2018-07-13T08:20:21.619Z,1016.27
2018-07-13T08:21:21.621Z,1016.29
2018-07-13T08:22:21.626Z,1016.30
2018-07-13T08:23:21.835Z,1016.31
2018-07-13T08:24:21.836Z,1016.30
2018-07-13T08:25:21.647Z,1016.23
2018-07-13T08:26:21.642Z,1016.26
2018-07-13T08:27:21.656Z,1016.28
2018-07-13T08:28:21.651Z,1016.25
2018-07-13T08:29:21.865Z,1016.29
2018-07-13T08:30:21.858Z,1016.26
2018-07-13T08:31:21.861Z,1016.25
2018-07-13T08:32:21.662Z,1016.25
2018-07-13T08:33:21.890Z,1016.26
2018-07-13T08:34:21.679Z,1016.25
2018-07-13T08:35:21.684Z,1016.26
2018-07-13T08:36:21.686Z,1016.27
2018-07-13T08:37:21.678Z,1016.25
2018-07-13T08:38:21.900Z,1016.25
2018-07-13T08:39:21.686Z,1016.22
2018-07-13T08:40:21.691Z,1016.23
2018-07-13T08:41:21.704Z,1016.24
2018-07-13T08:42:21.698Z,1016.25
2018-07-13T08:43:21.699Z,1016.28
2018-07-13T08:44:21.714Z,1016.28
2018-07-13T08:45:21.705Z,1016.27
2018-07-13T08:46:21.916Z,1016.26
2018-07-13T08:47:21.915Z,1016.29
2018-07-13T08:48:21.726Z,1016.25
2018-07-13T08:49:21.720Z,1016.24
2018-07-13T08:50:21.931Z,1016.24
2018-07-13T08:51:21.823Z,1016.22
2018-07-13T08:52:21.746Z,1016.20
2018-07-13T08:53:21.749Z,1016.18
2018-07-13T08:54:21.738Z,1016.19
2018-07-13T08:55:21.742Z,1016.19
2018-07-13T08:56:21.837Z,1016.20
2018-07-13T08:57:21.759Z,1016.14
2018-07-13T08:58:21.755Z,1016.17
2018-07-13T08:59:21.765Z,1016.20
2018-07-13T09:00:21.770Z,1016.18
2018-07-13T09:01:21.760Z,1016.22
2018-07-13T09:02:21.766Z,1016.20
2018-07-13T09:03:21.768Z,1016.20
2018-07-13T09:04:21.849Z,1016.20
2018-07-13T09:05:21.775Z,1016.19
2018-07-13T09:06:21.831Z,1016.21
2018-07-13T09:07:21.837Z,1016.19
2018-07-13T09:08:21.787Z,1016.18
2018-07-13T09:09:21.992Z,1016.15
2018-07-13T09:10:21.795Z,1016.20
2018-07-13T09:11:21.796Z,1016.20
2018-07-13T09:12:21.800Z,1016.16
2018-07-13T09:13:21.815Z,1016.21
2018-07-13T09:14:21.810Z,1016.16
2018-07-13T09:15:21.811Z,1016.17
2018-07-13T09:16:21.817Z,1016.18
2018-07-13T09:17:22.022Z,1016.18
2018-07-13T09:18:22.092Z,1016.17
2018-07-13T09:19:22.027Z,1016.16
2018-07-13T09:20:22.033Z,1016.16
2018-07-13T09:21:21.833Z,1016.19
2018-07-13T09:22:21.850Z,1016.16
2018-07-13T09:23:21.842Z,1016.16
2018-07-13T09:24:21.845Z,1016.15
2018-07-13T09:25:21.863Z,1016.15
2018-07-13T09:26:22.054Z,1016.16
2018-07-13T09:27:21.855Z,1016.19
2018-07-13T09:28:21.891Z,1016.19
2018-07-13T09:29:21.872Z,1016.15
2018-07-13T09:30:22.102Z,1016.16
2018-07-13T09:31:21.986Z,1016.15
2018-07-13T09:32:22.092Z,1016.13
2018-07-13T09:33:21.877Z,1016.15
2018-07-13T09:34:21.880Z,1016.14
2018-07-13T09:35:21.882Z,1016.15
2018-07-13T09:36:21.898Z,1016.15
2018-07-13T09:37:21.894Z,1016.14
2018-07-13T09:38:21.939Z,1016.10
2018-07-13T09:39:21.913Z,1016.15
2018-07-13T09:40:21.907Z,1016.11
2018-07-13T09:41:21.920Z,1016.13
2018-07-13T09:42:21.921Z,1016.12
2018-07-13T09:43:21.912Z,1016.14
2018-07-13T09:44:22.144Z,1016.14
2018-07-13T09:45:21.934Z,1016.14
2018-07-13T09:46:22.127Z,1016.14
2018-07-13T09:47:21.930Z,1016.17
2018-07-13T09:48:21.932Z,1016.15
2018-07-13T09:49:21.953Z,1016.12
2018-07-13T09:50:21.951Z,1016.14
2018-07-13T09:51:21.943Z,1016.11
2018-07-13T09:52:21.953Z,1016.17
2018-07-13T09:53:21.951Z,1016.14
2018-07-13T09:54:22.158Z,1016.15
2018-07-13T09:55:21.965Z,1016.12
2018-07-13T09:56:21.964Z,1016.15
2018-07-13T09:57:22.170Z,1016.19
2018-07-13T09:58:21.975Z,1016.19
2018-07-13T09:59:21.974Z,1016.16
2018-07-13T10:00:22.192Z,1016.18
2018-07-13T10:01:21.984Z,1016.18
2018-07-13T10:02:22.000Z,1016.17
2018-07-13T10:03:21.991Z,1016.17
2018-07-13T10:04:22.000Z,1016.15
2018-07-13T10:05:22.026Z,1016.15
2018-07-13T10:06:22.005Z,1016.21
2018-07-13T10:07:22.208Z,1016.18
2018-07-13T10:08:22.020Z,1016.15
2018-07-13T10:09:22.017Z,1016.18
2018-07-13T10:10:22.027Z,1016.22
2018-07-13T10:11:22.021Z,1016.19
2018-07-13T10:12:22.053Z,1016.15
2018-07-13T10:13:22.117Z,1016.17
2018-07-13T10:14:22.035Z,1016.19
2018-07-13T10:15:22.038Z,1016.21
2018-07-13T10:16:22.055Z,1016.21
2018-07-13T10:17:22.047Z,1016.22
2018-07-13T10:18:22.074Z,1016.24
2018-07-13T10:19:22.270Z,1016.25
2018-07-13T10:20:22.260Z,1016.25
2018-07-13T10:21:22.062Z,1016.21
2018-07-13T10:22:22.270Z,1016.20
2018-07-13T10:23:22.274Z,1016.21
2018-07-13T10:24:22.287Z,1016.20
2018-07-13T10:25:22.281Z,1016.16
2018-07-13T10:26:22.088Z,1016.18
2018-07-13T10:27:22.088Z,1016.15
2018-07-13T10:28:22.091Z,1016.13
2018-07-13T10:29:22.113Z,1016.13
2018-07-13T10:30:22.101Z,1016.11
2018-07-13T10:31:22.102Z,1016.11
2018-07-13T10:32:22.106Z,1016.13
2018-07-13T10:33:22.127Z,1016.13
2018-07-13T10:34:22.114Z,1016.19
2018-07-13T10:35:22.169Z,1016.14
2018-07-13T10:36:22.138Z,1016.14
2018-07-13T10:37:22.145Z,1016.13
2018-07-13T10:38:22.137Z,1016.12
2018-07-13T10:39:22.154Z,1016.16
2018-07-13T10:40:22.159Z,1016.13
2018-07-13T10:41:22.157Z,1016.13
2018-07-13T10:42:22.164Z,1016.12
2018-07-13T10:43:22.159Z,1016.12
2018-07-13T10:44:22.168Z,1016.12
2018-07-13T10:45:22.175Z,1016.14
2018-07-13T10:46:22.180Z,1016.11
2018-07-13T10:47:22.171Z,1016.13
2018-07-13T10:48:22.191Z,1016.11
2018-07-13T10:49:22.212Z,1016.11
2018-07-13T10:50:22.211Z,1016.13
2018-07-13T10:51:22.191Z,1016.08
2018-07-13T10:52:22.210Z,1016.11
2018-07-13T10:53:22.209Z,1016.03
2018-07-13T10:54:22.205Z,1016.02
2018-07-13T10:55:22.205Z,1016.02
2018-07-13T10:56:22.226Z,1016.03
2018-07-13T10:57:22.219Z,1016.00
2018-07-13T10:58:22.238Z,1016.03
2018-07-13T10:59:22.240Z,1016.02
2018-07-13T11:00:22.237Z,1016.04
2018-07-13T11:01:22.236Z,1016.01
2018-07-13T11:02:22.249Z,1016.02
2018-07-13T11:03:22.259Z,1016.03
2018-07-13T11:04:22.248Z,1016.04
2018-07-13T11:05:22.266Z,1016.06
2018-07-13T11:06:22.268Z,1016.01
2018-07-13T11:07:22.261Z,1015.98
2018-07-13T11:08:22.281Z,1015.97
2018-07-13T11:09:22.273Z,1015.99
2018-07-13T11:10:22.279Z,1016.04
2018-07-13T11:11:22.323Z,1015.99
2018-07-13T11:12:22.308Z,1015.95
2018-07-13T11:13:22.288Z,1015.96
2018-07-13T11:14:22.294Z,1015.94
2018-07-13T11:15:22.316Z,1015.98
2018-07-13T11:16:22.336Z,1015.94
2018-07-13T11:17:22.329Z,1015.97
2018-07-13T11:18:22.317Z,1015.91
2018-07-13T11:19:22.319Z,1015.92
2018-07-13T11:20:22.315Z,1015.96
2018-07-13T11:21:22.325Z,1015.94
2018-07-13T11:22:22.330Z,1015.93
2018-07-13T11:23:22.337Z,1015.93
2018-07-13T11:24:22.452Z,1015.91
2018-07-13T11:25:22.348Z,1015.92
2018-07-13T11:26:22.348Z,1015.93
2018-07-13T11:27:22.352Z,1015.93
2018-07-13T11:28:22.355Z,1015.91
2018-07-13T11:29:22.359Z,1015.91
2018-07-13T11:30:22.369Z,1015.96
2018-07-13T11:31:22.389Z,1015.92
2018-07-13T11:32:22.383Z,1015.91
2018-07-13T11:33:22.376Z,1015.91
2018-07-13T11:34:22.390Z,1015.91
2018-07-13T11:35:22.384Z,1015.90
2018-07-13T11:36:22.395Z,1015.88
2018-07-13T11:37:22.552Z,1015.89
2018-07-13T11:38:22.401Z,1015.82
2018-07-13T11:39:22.405Z,1015.83
2018-07-13T11:40:22.411Z,1015.82
2018-07-13T11:41:22.415Z,1015.82
2018-07-13T11:42:22.420Z,1015.80
2018-07-13T11:43:22.422Z,1015.82
2018-07-13T11:44:22.431Z,1015.77
2018-07-13T11:45:22.431Z,1015.79
2018-07-13T11:46:22.439Z,1015.77
2018-07-13T11:47:22.441Z,1015.76
2018-07-13T11:48:22.448Z,1015.78
2018-07-13T11:49:22.455Z,1015.74
2018-07-13T11:50:22.457Z,1015.77
2018-07-13T11:51:22.484Z,1015.69
2018-07-13T11:52:22.466Z,1015.69
2018-07-13T11:53:22.506Z,1015.68
2018-07-13T11:54:22.483Z,1015.72
2018-07-13T11:55:22.493Z,1015.69
2018-07-13T11:56:22.484Z,1015.67
2018-07-13T11:57:22.507Z,1015.63
2018-07-13T11:58:22.503Z,1015.67
2018-07-13T11:59:22.509Z,1015.61
2018-07-13T12:00:22.508Z,1015.63
2018-07-13T12:01:22.521Z,1015.61
2018-07-13T12:02:22.516Z,1015.60
2018-07-13T12:03:22.528Z,1015.61
2018-07-13T12:04:22.526Z,1015.57
2018-07-13T12:05:22.533Z,1015.52